Time;durP1;ratioP1;P1;durP2;ratioP2;P2;SDS_P1;SDS_P2;PMS_P1;PMS_P2;Temp;Humidity;BMP_temperature;BMP_pressure;BME280_temperature;BME280_humidity;BME280_pressure;Samples;Min_cycle;Max_cycle;Signal;HPM_P1;HPM_P2
2022/03/20 00:02:01;;;;;;;9.98;5.90;;;6.90;99.90;;;;;;5078848;28;20398;-59
2022/03/20 00:04:30;;;;;;;9.77;6.30;;;6.90;99.90;;;;;;5077790;28;20388;-59
2022/03/20 00:07:01;;;;;;;11.15;6.38;;;6.80;99.90;;;;;;5077577;28;20443;-59
2022/03/20 00:09:30;;;;;;;11.05;6.65;;;6.80;99.90;;;;;;5072192;28;20500;-58
2022/03/20 00:12:01;;;;;;;8.32;6.25;;;6.80;99.90;;;;;;5068495;28;20455;-59
2022/03/20 00:14:33;;;;;;;12.35;6.95;;;6.80;99.90;;;;;;5069711;28;20629;-58
2022/03/20 00:17:02;;;;;;;11.07;6.90;;;6.70;99.90;;;;;;5058995;28;20420;-58
2022/03/20 00:19:38;;;;;;;10.80;6.63;;;6.70;99.90;;;;;;5049953;28;20510;-57
2022/03/20 00:22:08;;;;;;;10.93;6.95;;;6.70;99.90;;;;;;5050057;28;20597;-58
2022/03/20 00:24:40;;;;;;;10.52;7.10;;;6.70;99.90;;;;;;5045246;28;20632;-59
2022/03/20 00:27:15;;;;;;;10.13;7.20;;;6.70;99.90;;;;;;5050916;28;20761;-59
2022/03/20 00:29:45;;;;;;;11.73;7.38;;;6.70;99.90;;;;;;5051550;28;20398;-57
2022/03/20 00:32:16;;;;;;;9.38;6.85;;;6.70;99.90;;;;;;5068968;28;20413;-59
2022/03/20 00:34:47;;;;;;;10.40;7.47;;;6.70;99.90;;;;;;5051053;28;20494;-58
2022/03/20 00:37:17;;;;;;;10.82;7.53;;;6.70;99.90;;;;;;5052227;28;20535;-59
2022/03/20 00:39:47;;;;;;;13.00;7.88;;;6.60;99.90;;;;;;5069409;28;20744;-59
2022/03/20 00:42:16;;;;;;;12.27;7.77;;;6.50;99.90;;;;;;5068249;28;20791;-59
2022/03/20 00:44:50;;;;;;;10.98;7.60;;;6.50;99.90;;;;;;5048149;28;20395;-57
2022/03/20 00:47:18;;;;;;;11.23;8.23;;;6.40;99.90;;;;;;5051862;28;20386;-59
2022/03/20 00:49:49;;;;;;;10.88;8.02;;;6.40;99.90;;;;;;5070699;28;20397;-59
2022/03/20 00:52:20;;;;;;;11.25;8.05;;;6.30;99.90;;;;;;5072165;28;20581;-59
2022/03/20 00:54:50;;;;;;;12.02;8.32;;;6.30;99.90;;;;;;5052681;28;20437;-59
2022/03/20 00:57:25;;;;;;;13.30;8.70;;;6.30;99.90;;;;;;5052947;28;20379;-59
2022/03/20 01:00:04;;;;;;;11.20;8.60;;;6.30;99.90;;;;;;5034201;28;20746;-59
2022/03/20 01:02:44;;;;;;;12.95;8.90;;;6.30;99.90;;;;;;5035954;28;20785;-59
2022/03/20 01:05:20;;;;;;;11.55;9.13;;;6.40;99.90;;;;;;5053479;28;20385;-59
2022/03/20 01:07:49;;;;;;;11.48;9.40;;;6.30;99.90;;;;;;5050609;28;20459;-59
2022/03/20 01:10:20;;;;;;;13.00;9.80;;;6.30;99.90;;;;;;5050863;28;20389;-59
2022/03/20 01:12:47;;;;;;;10.77;8.80;;;6.20;99.90;;;;;;5034017;28;20467;-59
2022/03/20 01:15:16;;;;;;;12.77;9.70;;;6.30;99.90;;;;;;5033662;28;20394;-59
2022/03/20 01:17:46;;;;;;;13.35;9.60;;;6.30;99.90;;;;;;5050649;28;20495;-57
2022/03/20 01:20:16;;;;;;;13.35;10.05;;;6.30;99.90;;;;;;5052592;28;20731;-59
2022/03/20 01:22:45;;;;;;;13.32;9.52;;;6.30;99.90;;;;;;5069987;28;20756;-58
2022/03/20 01:25:18;;;;;;;12.73;10.07;;;6.30;99.90;;;;;;5051790;28;20388;-59
2022/03/20 01:27:54;;;;;;;13.70;10.60;;;6.30;99.90;;;;;;5069771;28;20376;-59
2022/03/20 01:30:23;;;;;;;11.40;9.35;;;6.20;99.90;;;;;;5068077;28;20888;-58
2022/03/20 01:32:53;;;;;;;14.18;10.13;;;6.20;99.90;;;;;;5069877;28;20733;-59
2022/03/20 01:35:21;;;;;;;14.20;10.73;;;6.20;99.90;;;;;;5068692;28;20384;-59
2022/03/20 01:37:52;;;;;;;16.10;11.02;;;6.20;99.90;;;;;;5054303;28;20379;-58
2022/03/20 01:40:23;;;;;;;14.32;11.40;;;6.20;99.90;;;;;;5054946;28;20826;-58
2022/03/20 01:42:52;;;;;;;14.00;11.07;;;6.20;99.90;;;;;;5051702;28;20450;-59
2022/03/20 01:45:24;;;;;;;14.10;10.98;;;6.10;99.90;;;;;;5052281;28;20427;-59
2022/03/20 01:47:55;;;;;;;14.35;11.48;;;6.10;99.90;;;;;;5052349;28;20418;-58
2022/03/20 01:50:25;;;;;;;15.02;11.30;;;6.10;99.90;;;;;;5069952;28;20547;-59
2022/03/20 01:52:58;;;;;;;13.77;11.05;;;6.00;99.90;;;;;;5069838;28;20487;-56
2022/03/20 01:55:29;;;;;;;17.42;11.20;;;6.00;99.90;;;;;;5054191;28;20380;-56
2022/03/20 01:57:58;;;;;;;16.35;11.52;;;6.00;99.90;;;;;;5048014;28;20800;-57
2022/03/20 02:00:28;;;;;;;15.40;11.50;;;6.00;99.90;;;;;;5072434;28;20391;-58
2022/03/20 02:02:58;;;;;;;15.10;11.60;;;6.00;99.90;;;;;;5071249;28;20744;-58
2022/03/20 02:05:29;;;;;;;14.52;11.55;;;6.00;99.90;;;;;;5054685;28;20818;-56
2022/03/20 02:08:00;;;;;;;13.95;12.05;;;5.90;99.90;;;;;;5070851;28;20651;-58
2022/03/20 02:10:35;;;;;;;15.38;12.10;;;5.90;99.90;;;;;;5053387;28;20683;-58
2022/03/20 02:13:06;;;;;;;14.88;11.68;;;6.00;99.90;;;;;;5051121;28;20395;-59
2022/03/20 02:15:36;;;;;;;15.73;11.52;;;6.00;99.90;;;;;;5051483;28;20392;-59
2022/03/20 02:18:09;;;;;;;16.52;12.65;;;5.90;99.90;;;;;;5070257;28;20396;-59
2022/03/20 02:20:38;;;;;;;13.90;12.20;;;5.90;99.90;;;;;;5069619;28;20403;-59
2022/03/20 02:23:07;;;;;;;15.48;12.20;;;5.80;99.90;;;;;;5052878;28;20850;-58
2022/03/20 02:25:38;;;;;;;13.15;11.68;;;5.90;99.90;;;;;;5070011;28;20734;-58
2022/03/20 02:28:07;;;;;;;17.58;12.13;;;5.90;99.90;;;;;;5053572;28;20388;-58
2022/03/20 02:30:40;;;;;;;14.98;12.18;;;5.80;99.90;;;;;;5071441;28;20424;-59
2022/03/20 02:33:09;;;;;;;17.60;12.70;;;5.80;99.90;;;;;;5053849;28;20504;-59
2022/03/20 02:35:41;;;;;;;13.18;11.25;;;5.80;99.90;;;;;;5053682;28;20433;-60
2022/03/20 02:38:18;;;;;;;12.87;11.03;;;5.70;99.90;;;;;;5054090;28;20376;-59
2022/03/20 02:40:54;;;;;;;13.48;11.73;;;5.70;99.90;;;;;;5054598;28;20383;-59
2022/03/20 02:43:29;;;;;;;14.10;11.50;;;5.70;99.90;;;;;;5054429;28;20391;-59
2022/03/20 02:46:00;;;;;;;16.17;12.30;;;5.60;99.90;;;;;;5054578;28;20514;-58
2022/03/20 02:48:30;;;;;;;14.68;11.23;;;5.70;99.90;;;;;;5053550;28;20677;-58
2022/03/20 02:51:00;;;;;;;15.48;11.50;;;5.70;99.90;;;;;;5069722;28;20380;-59
2022/03/20 02:53:30;;;;;;;14.57;12.13;;;5.70;99.90;;;;;;5069979;28;20387;-59
2022/03/20 02:55:59;;;;;;;14.88;12.27;;;5.60;99.90;;;;;;5071781;28;20395;-57
2022/03/20 02:58:28;;;;;;;15.00;12.18;;;5.60;99.90;;;;;;5054357;28;20408;-58
2022/03/20 03:01:02;;;;;;;15.00;12.00;;;5.50;99.90;;;;;;5070228;28;20505;-59
2022/03/20 03:03:31;;;;;;;14.60;12.23;;;5.50;99.90;;;;;;5072993;28;20379;-58
2022/03/20 03:06:06;;;;;;;14.93;11.75;;;5.50;99.90;;;;;;5072851;28;20375;-59
2022/03/20 03:11:18;;;;;;;14.15;11.55;;;5.40;99.90;;;;;;5039157;28;20378;-62
2022/03/20 03:13:44;;;;;;;13.52;11.68;;;5.40;99.90;;;;;;5052627;28;20383;-57
2022/03/20 03:16:11;;;;;;;13.87;11.50;;;5.40;99.90;;;;;;5052767;28;20583;-57
2022/03/20 03:18:38;;;;;;;13.63;11.93;;;5.40;99.90;;;;;;5052462;28;20406;-59
2022/03/20 03:21:04;;;;;;;14.38;11.38;;;5.40;99.90;;;;;;5069466;28;20889;-56
2022/03/20 03:23:30;;;;;;;14.05;12.07;;;5.40;99.90;;;;;;5052082;28;20419;-57
2022/03/20 03:25:57;;;;;;;14.05;11.95;;;5.40;99.90;;;;;;5053571;28;20825;-58
2022/03/20 03:28:34;;;;;;;14.25;12.50;;;5.30;99.90;;;;;;5053599;28;20529;-57
2022/03/20 03:31:00;;;;;;;15.23;12.10;;;5.30;99.90;;;;;;5052325;28;20486;-59
2022/03/20 03:33:25;;;;;;;13.67;11.30;;;5.30;99.90;;;;;;5051397;28;20473;-59
2022/03/20 03:35:53;;;;;;;14.97;12.30;;;5.30;99.90;;;;;;5051875;28;20486;-58
2022/03/20 03:38:22;;;;;;;14.68;12.40;;;5.30;99.90;;;;;;5054050;28;20376;-57
2022/03/20 03:40:48;;;;;;;14.70;12.07;;;5.30;99.90;;;;;;5052538;28;20376;-59
2022/03/20 03:43:17;;;;;;;15.85;12.75;;;5.30;99.90;;;;;;5052279;28;20732;-59
2022/03/20 03:45:43;;;;;;;14.23;12.32;;;5.20;99.90;;;;;;5053178;28;20768;-59
2022/03/20 03:48:09;;;;;;;14.48;12.63;;;5.20;99.90;;;;;;5053254;28;20387;-59
2022/03/20 03:50:36;;;;;;;13.82;12.35;;;5.20;99.90;;;;;;5054928;28;20815;-58
2022/03/20 03:53:03;;;;;;;15.03;13.07;;;5.20;99.90;;;;;;5054742;28;20438;-56
2022/03/20 03:55:31;;;;;;;15.00;12.60;;;5.20;99.90;;;;;;5071295;28;20379;-59
2022/03/20 03:57:56;;;;;;;14.27;12.75;;;5.20;99.90;;;;;;5054113;28;20660;-59
2022/03/20 04:00:24;;;;;;;17.00;13.60;;;5.20;99.90;;;;;;5056230;28;20404;-56
2022/03/20 04:02:50;;;;;;;16.55;13.65;;;5.20;99.90;;;;;;5057139;28;20387;-58
2022/03/20 04:05:20;;;;;;;17.27;13.85;;;5.10;99.90;;;;;;5058206;28;20394;-59
2022/03/20 04:07:47;;;;;;;18.88;13.63;;;5.00;99.90;;;;;;5058912;28;20419;-59
2022/03/20 04:10:14;;;;;;;14.85;13.25;;;5.00;99.90;;;;;;5075176;28;20379;-59
2022/03/20 04:12:46;;;;;;;15.70;13.38;;;5.00;99.90;;;;;;5056983;28;20391;-60
2022/03/20 04:15:13;;;;;;;16.67;14.05;;;5.00;99.90;;;;;;5058029;28;20919;-57
2022/03/20 04:17:39;;;;;;;14.75;12.57;;;5.00;99.90;;;;;;5055664;28;20403;-58
2022/03/20 04:20:06;;;;;;;18.45;13.57;;;4.90;99.90;;;;;;5054863;28;20372;-55
2022/03/20 04:22:33;;;;;;;16.75;14.23;;;5.00;99.90;;;;;;5074216;28;20379;-56
2022/03/20 04:24:59;;;;;;;16.98;14.50;;;4.90;99.90;;;;;;5055167;28;20387;-59
2022/03/20 04:27:25;;;;;;;15.33;13.70;;;4.90;99.90;;;;;;5072646;28;20388;-59
2022/03/20 04:29:52;;;;;;;16.42;13.90;;;4.90;99.90;;;;;;5055198;28;20408;-59
2022/03/20 04:32:18;;;;;;;16.23;13.77;;;4.90;99.90;;;;;;5056000;28;20400;-57
2022/03/20 04:34:44;;;;;;;14.83;13.20;;;4.90;99.90;;;;;;5056463;28;20517;-58
2022/03/20 04:37:11;;;;;;;15.52;13.45;;;4.90;99.90;;;;;;5073812;28;20371;-56
2022/03/20 04:39:38;;;;;;;18.70;14.27;;;4.90;99.90;;;;;;5056118;28;20732;-57
2022/03/20 04:42:05;;;;;;;16.42;13.63;;;4.90;99.90;;;;;;5056778;28;20680;-56
2022/03/20 04:44:31;;;;;;;16.35;14.57;;;4.80;99.90;;;;;;5056224;28;20478;-57
2022/03/20 04:46:57;;;;;;;17.17;14.20;;;4.80;99.90;;;;;;5069222;28;20422;-58
2022/03/20 05:00:21;;;;;;;15.95;13.90;;;4.80;99.90;;;;;;5071096;28;20749;-56
2022/03/20 05:02:47;;;;;;;16.52;14.73;;;4.70;99.90;;;;;;5054075;28;20387;-58
2022/03/20 05:05:16;;;;;;;18.17;13.60;;;4.80;99.90;;;;;;5053488;28;20407;-59
2022/03/20 05:07:43;;;;;;;18.25;15.55;;;4.70;99.90;;;;;;5073546;28;20586;-59
2022/03/20 05:15:39;;;;;;;16.38;14.30;;;4.70;99.90;;;;;;5073812;28;21016;-57
2022/03/20 05:18:06;;;;;;;17.43;14.63;;;4.70;99.90;;;;;;5055748;28;20388;-57
2022/03/20 05:20:32;;;;;;;16.35;14.30;;;4.70;99.90;;;;;;5056792;28;20391;-60
2022/03/20 05:22:59;;;;;;;17.90;14.45;;;4.70;99.90;;;;;;5053461;28;20395;-56
2022/03/20 05:25:26;;;;;;;17.92;15.18;;;4.60;99.90;;;;;;5056325;28;20422;-58
2022/03/20 05:27:51;;;;;;;16.65;14.80;;;4.60;99.90;;;;;;5055456;28;20668;-59
2022/03/20 05:30:17;;;;;;;17.07;14.60;;;4.60;99.90;;;;;;5054788;28;20407;-59
2022/03/20 05:32:43;;;;;;;21.37;14.97;;;4.60;99.90;;;;;;5054240;28;20430;-58
2022/03/20 05:35:09;;;;;;;17.97;14.90;;;4.50;99.90;;;;;;5052594;28;20437;-58
2022/03/20 05:37:36;;;;;;;17.33;14.60;;;4.60;99.90;;;;;;5070938;28;20380;-58
2022/03/20 05:40:04;;;;;;;18.58;14.73;;;4.50;99.90;;;;;;5069467;28;20712;-58
2022/03/20 05:42:29;;;;;;;16.43;14.33;;;4.60;99.90;;;;;;5050617;28;20477;-59
2022/03/20 05:44:55;;;;;;;17.53;14.93;;;4.60;99.90;;;;;;5051536;28;20467;-59
2022/03/20 05:47:21;;;;;;;17.40;14.57;;;4.60;99.90;;;;;;5049735;28;20532;-59
2022/03/20 05:49:47;;;;;;;17.87;14.50;;;4.60;99.90;;;;;;5067101;28;20386;-59
2022/03/20 05:52:13;;;;;;;18.30;15.20;;;4.60;99.90;;;;;;5066421;28;20521;-59
2022/03/20 05:54:39;;;;;;;17.30;14.18;;;4.60;99.90;;;;;;5066957;28;20384;-59
2022/03/20 05:59:52;;;;;;;16.63;13.83;;;4.60;99.90;;;;;;5065528;28;20379;-59
2022/03/20 06:02:19;;;;;;;19.10;14.02;;;4.60;99.90;;;;;;5047825;28;20388;-59
2022/03/20 06:04:44;;;;;;;16.87;13.70;;;4.60;99.90;;;;;;5047650;28;20799;-59
2022/03/20 06:07:10;;;;;;;17.47;14.20;;;4.60;99.90;;;;;;5065383;28;20453;-59
2022/03/20 06:09:37;;;;;;;16.05;14.18;;;4.60;99.90;;;;;;5049976;28;20417;-60
2022/03/20 06:12:03;;;;;;;17.38;14.18;;;4.70;99.90;;;;;;5049688;28;20505;-57
2022/03/20 06:14:28;;;;;;;18.30;15.57;;;4.60;99.90;;;;;;5066339;28;20395;-59
2022/03/20 06:16:56;;;;;;;16.77;14.27;;;4.60;99.90;;;;;;5048934;28;20418;-59
2022/03/20 06:19:21;;;;;;;19.90;15.20;;;4.60;99.90;;;;;;5051056;28;20383;-59
2022/03/20 06:21:47;;;;;;;17.30;14.33;;;4.60;99.90;;;;;;5069199;28;20384;-60
2022/03/20 06:24:12;;;;;;;18.08;15.18;;;4.60;99.90;;;;;;5067052;28;20429;-59
2022/03/20 06:26:38;;;;;;;19.25;14.40;;;4.70;99.90;;;;;;5050563;28;20402;-58
2022/03/20 06:29:05;;;;;;;17.33;14.37;;;4.70;99.90;;;;;;5051620;28;20388;-58
2022/03/20 06:31:31;;;;;;;16.60;14.80;;;4.70;99.90;;;;;;5052516;28;20654;-58
2022/03/20 06:33:58;;;;;;;18.05;14.65;;;4.70;99.90;;;;;;5071050;28;20459;-57
2022/03/20 06:36:24;;;;;;;17.42;14.88;;;4.70;99.90;;;;;;5052728;28;20641;-56
2022/03/20 06:38:49;;;;;;;18.90;14.68;;;4.70;99.90;;;;;;5072435;28;20858;-59
2022/03/20 06:41:15;;;;;;;16.30;14.07;;;4.70;99.90;;;;;;5053563;28;20388;-59
2022/03/20 06:43:41;;;;;;;16.27;14.03;;;4.80;99.90;;;;;;5052938;28;20386;-55
2022/03/20 06:46:07;;;;;;;16.13;13.73;;;4.80;99.90;;;;;;5068361;28;20782;-59
2022/03/20 06:48:33;;;;;;;15.82;13.75;;;4.80;99.90;;;;;;5051239;28;20442;-59
2022/03/20 06:50:59;;;;;;;18.13;14.50;;;4.90;99.90;;;;;;5049409;28;20388;-59
2022/03/20 06:53:25;;;;;;;18.50;14.52;;;4.90;99.90;;;;;;5047249;28;20414;-59
2022/03/20 06:55:51;;;;;;;16.75;14.18;;;4.90;99.90;;;;;;5046389;28;20384;-57
2022/03/20 06:58:18;;;;;;;18.27;13.93;;;5.00;99.90;;;;;;5046309;28;20387;-56
2022/03/20 07:00:46;;;;;;;16.75;14.15;;;5.00;99.90;;;;;;5046675;28;20520;-60
2022/03/20 07:03:11;;;;;;;15.98;13.93;;;5.00;99.90;;;;;;5045521;28;20414;-57
2022/03/20 07:05:37;;;;;;;16.33;13.97;;;5.10;99.90;;;;;;5046576;28;20411;-58
2022/03/20 07:08:04;;;;;;;16.67;13.20;;;5.10;99.90;;;;;;5047686;28;20482;-57
2022/03/20 07:10:30;;;;;;;17.55;13.70;;;5.10;99.90;;;;;;5045640;28;20384;-60
2022/03/20 07:15:46;;;;;;;17.20;13.90;;;5.20;99.90;;;;;;5064379;28;20519;-58
2022/03/20 07:18:14;;;;;;;18.13;14.52;;;5.20;99.90;;;;;;5062476;28;20394;-60
2022/03/20 07:20:42;;;;;;;15.45;13.35;;;5.30;99.90;;;;;;5047526;28;20418;-60
2022/03/20 07:23:09;;;;;;;16.00;12.82;;;5.30;99.90;;;;;;5046859;28;20380;-60
2022/03/20 07:31:03;;;;;;;19.73;13.48;;;5.50;99.90;;;;;;5065935;28;20402;-59
2022/03/20 07:33:29;;;;;;;17.58;13.43;;;5.50;99.90;;;;;;5047255;28;20404;-59
2022/03/20 07:35:55;;;;;;;14.70;12.40;;;5.60;99.90;;;;;;5048961;28;20456;-59
2022/03/20 07:38:20;;;;;;;15.82;13.25;;;5.60;99.90;;;;;;5047136;28;20449;-60
2022/03/20 07:40:46;;;;;;;14.50;12.20;;;5.70;99.90;;;;;;5047570;28;20394;-59
2022/03/20 07:43:11;;;;;;;15.95;12.70;;;5.70;99.90;;;;;;5067549;28;20422;-59
2022/03/20 07:45:37;;;;;;;15.30;12.83;;;5.80;99.90;;;;;;5048299;28;20403;-58
2022/03/20 07:48:03;;;;;;;15.57;13.17;;;5.80;99.90;;;;;;5047885;28;20638;-57
2022/03/20 07:50:28;;;;;;;15.98;13.05;;;5.90;99.90;;;;;;5048974;28;20616;-59
2022/03/20 07:52:56;;;;;;;14.77;12.38;;;6.00;99.90;;;;;;5050493;28;20616;-57
2022/03/20 07:55:24;;;;;;;14.93;12.80;;;6.00;99.90;;;;;;5052071;28;20387;-57
2022/03/20 07:57:50;;;;;;;16.02;12.38;;;6.10;99.90;;;;;;5050567;28;20667;-58
2022/03/20 08:00:17;;;;;;;14.15;12.63;;;6.10;99.90;;;;;;5067368;28;20661;-57
2022/03/20 08:02:44;;;;;;;16.52;12.85;;;6.10;99.90;;;;;;5065788;28;20403;-59
2022/03/20 08:05:10;;;;;;;15.63;12.40;;;6.20;99.90;;;;;;5066013;28;20376;-57
2022/03/20 08:07:36;;;;;;;16.70;12.65;;;6.20;99.90;;;;;;5047621;28;20388;-59
2022/03/20 08:10:07;;;;;;;16.35;12.57;;;6.20;99.90;;;;;;5045221;28;20383;-59
2022/03/20 08:12:33;;;;;;;15.95;12.07;;;6.30;99.90;;;;;;5063963;28;20659;-59
2022/03/20 08:14:59;;;;;;;14.45;11.95;;;6.30;99.90;;;;;;5044400;28;20486;-59
2022/03/20 08:17:24;;;;;;;16.23;12.55;;;6.40;99.90;;;;;;5060745;28;20411;-59
2022/03/20 08:19:50;;;;;;;16.33;12.85;;;6.40;99.90;;;;;;5043753;28;20723;-59
2022/03/20 08:22:16;;;;;;;15.15;12.10;;;6.50;99.90;;;;;;5047164;28;20376;-59
2022/03/20 08:24:44;;;;;;;13.45;11.23;;;6.50;99.90;;;;;;5046351;28;20392;-59
2022/03/20 08:27:11;;;;;;;16.10;12.55;;;6.60;99.90;;;;;;5044973;28;20784;-59
2022/03/20 08:29:36;;;;;;;15.40;12.32;;;6.60;99.90;;;;;;5047431;28;20744;-59
2022/03/20 08:32:02;;;;;;;15.85;12.90;;;6.60;99.90;;;;;;5048927;28;20431;-57
2022/03/20 08:34:28;;;;;;;14.63;11.90;;;6.70;99.90;;;;;;5068385;28;20371;-57
2022/03/20 08:36:54;;;;;;;14.38;11.50;;;6.80;99.90;;;;;;5050001;28;20776;-56
2022/03/20 08:39:20;;;;;;;18.38;12.57;;;6.80;99.90;;;;;;5050807;28;20653;-58
2022/03/20 08:41:47;;;;;;;16.57;12.63;;;6.90;99.90;;;;;;5051385;28;20956;-58
2022/03/20 08:44:14;;;;;;;16.25;12.25;;;7.00;99.90;;;;;;5051078;28;20771;-59
2022/03/20 08:46:40;;;;;;;16.20;12.13;;;7.10;99.90;;;;;;5049237;28;20403;-54
2022/03/20 08:49:07;;;;;;;16.93;12.07;;;7.10;99.90;;;;;;5066741;28;20384;-57
2022/03/20 08:51:34;;;;;;;15.87;12.43;;;7.10;99.90;;;;;;5050781;28;20405;-58
2022/03/20 08:54:01;;;;;;;16.60;12.67;;;7.20;99.90;;;;;;5066907;28;20380;-57
2022/03/20 08:56:27;;;;;;;15.60;12.68;;;7.20;99.90;;;;;;5047734;28;20386;-59
2022/03/20 08:58:53;;;;;;;14.18;12.23;;;7.20;99.90;;;;;;5047866;28;20635;-58
2022/03/20 09:01:19;;;;;;;18.80;12.75;;;7.30;99.90;;;;;;5048139;28;20732;-57
2022/03/20 09:03:49;;;;;;;16.65;13.00;;;7.30;99.90;;;;;;5049012;28;20380;-59
2022/03/20 09:06:15;;;;;;;13.93;12.32;;;7.40;99.90;;;;;;5047162;28;20420;-59
2022/03/20 09:08:40;;;;;;;18.30;13.88;;;7.40;99.90;;;;;;5047011;28;20379;-57
2022/03/20 09:11:06;;;;;;;17.10;12.33;;;7.50;99.90;;;;;;5063866;28;20380;-58
2022/03/20 09:13:32;;;;;;;15.60;13.30;;;7.50;99.90;;;;;;5065849;28;20499;-56
2022/03/20 09:19:00;;;;;;;17.50;12.70;;;7.60;99.90;;;;;;5044915;28;20474;-59
2022/03/20 09:21:33;;;;;;;16.53;13.00;;;7.70;99.90;;;;;;5044177;28;20450;-58
2022/03/20 09:24:00;;;;;;;14.93;12.48;;;7.70;99.90;;;;;;5043801;28;20469;-58
2022/03/20 09:26:26;;;;;;;18.75;12.90;;;7.80;99.90;;;;;;5042134;28;20373;-58
2022/03/20 09:28:53;;;;;;;14.43;12.10;;;7.90;99.90;;;;;;5024572;28;20462;-59
2022/03/20 09:31:19;;;;;;;18.33;13.10;;;7.90;99.90;;;;;;5024429;28;20405;-53
2022/03/20 09:33:46;;;;;;;17.42;13.85;;;8.00;99.90;;;;;;5027750;28;20412;-59
2022/03/20 09:36:12;;;;;;;15.73;12.48;;;8.10;99.90;;;;;;5028913;28;20460;-59
2022/03/20 09:38:38;;;;;;;15.57;13.30;;;8.10;99.90;;;;;;5028246;28;20476;-56
2022/03/20 09:41:11;;;;;;;17.40;13.60;;;8.10;99.90;;;;;;5048080;28;20429;-57
2022/03/20 09:43:39;;;;;;;15.57;13.73;;;8.20;99.90;;;;;;5029985;28;20863;-58
2022/03/20 09:46:05;;;;;;;17.67;14.57;;;8.20;99.90;;;;;;5029400;28;20601;-58
2022/03/20 09:48:31;;;;;;;16.67;13.85;;;8.30;99.90;;;;;;5028533;28;20691;-59
2022/03/20 09:50:58;;;;;;;17.83;14.85;;;8.30;99.90;;;;;;5026915;28;20598;-59
2022/03/20 09:53:24;;;;;;;19.35;14.68;;;8.40;99.90;;;;;;5026041;28;20401;-59
2022/03/20 09:55:50;;;;;;;16.98;14.38;;;8.40;99.90;;;;;;5044299;28;20674;-59
2022/03/20 09:58:16;;;;;;;18.83;15.45;;;8.50;99.90;;;;;;5025312;28;20820;-59
2022/03/20 10:00:41;;;;;;;19.73;15.57;;;8.50;99.90;;;;;;5023487;28;20407;-57
2022/03/20 10:03:18;;;;;;;18.83;15.53;;;8.60;99.90;;;;;;5025031;28;20381;-59
2022/03/20 10:05:44;;;;;;;19.42;14.85;;;8.60;99.90;;;;;;5024880;28;20396;-58
2022/03/20 10:08:17;;;;;;;17.15;14.50;;;8.70;99.90;;;;;;5022435;28;20401;-59
2022/03/20 10:10:43;;;;;;;18.45;15.07;;;8.70;99.90;;;;;;5044648;28;20391;-59
2022/03/20 10:13:13;;;;;;;17.10;14.35;;;8.90;99.90;;;;;;5027267;28;20405;-59
2022/03/20 10:15:43;;;;;;;20.35;15.32;;;8.90;99.90;;;;;;5042629;28;20405;-58
2022/03/20 10:18:20;;;;;;;17.40;14.50;;;9.00;99.90;;;;;;5025746;28;20407;-59
2022/03/20 10:20:55;;;;;;;18.30;15.38;;;9.10;99.90;;;;;;5027943;28;20840;-59
2022/03/20 10:23:39;;;;;;;22.15;16.35;;;9.10;99.90;;;;;;5046578;28;20387;-59
2022/03/20 10:26:07;;;;;;;19.60;15.20;;;9.30;99.90;;;;;;5025452;28;20385;-59
2022/03/20 10:28:40;;;;;;;20.90;15.60;;;9.30;99.90;;;;;;5040998;28;20435;-59
2022/03/20 10:31:09;;;;;;;18.38;14.85;;;9.30;99.90;;;;;;5040475;28;20771;-58
2022/03/20 10:33:40;;;;;;;17.77;14.57;;;9.40;99.90;;;;;;5021193;28;20405;-57
2022/03/20 10:36:14;;;;;;;19.35;14.57;;;9.50;99.90;;;;;;5020959;28;20795;-59
2022/03/20 10:38:41;;;;;;;17.15;14.45;;;9.50;99.90;;;;;;5040049;28;20466;-58
2022/03/20 10:41:27;;;;;;;19.55;15.50;;;9.60;99.90;;;;;;5039220;28;20420;-58
2022/03/20 10:43:55;;;;;;;17.17;14.03;;;9.80;99.90;;;;;;5040537;28;20796;-56
2022/03/20 10:46:32;;;;;;;18.00;14.25;;;9.90;99.90;;;;;;5021713;28;20389;-57
2022/03/20 10:49:00;;;;;;;17.65;14.50;;;10.20;99.90;;;;;;5020890;28;20400;-58
2022/03/20 10:51:37;;;;;;;17.52;14.57;;;10.60;99.90;;;;;;5039664;28;20677;-59
2022/03/20 10:54:06;;;;;;;16.45;14.02;;;10.90;99.90;;;;;;5040058;28;20672;-59
2022/03/20 10:56:32;;;;;;;18.38;14.73;;;11.20;99.90;;;;;;5039697;28;20401;-59
2022/03/20 10:58:58;;;;;;;17.40;13.60;;;11.40;99.90;;;;;;5023860;28;20418;-59
2022/03/20 11:01:37;;;;;;;15.97;14.10;;;11.70;99.90;;;;;;5041169;28;20731;-59
2022/03/20 11:04:08;;;;;;;16.70;14.00;;;11.90;99.10;;;;;;5045419;28;20385;-59
2022/03/20 11:06:35;;;;;;;18.25;14.35;;;11.90;99.10;;;;;;5024466;28;20417;-59
2022/03/20 11:09:04;;;;;;;15.32;13.73;;;12.00;98.20;;;;;;5038840;28;20463;-57
2022/03/20 11:11:34;;;;;;;17.00;13.80;;;12.00;98.30;;;;;;5039980;28;20429;-59
2022/03/20 11:14:00;;;;;;;16.43;13.63;;;12.20;98.00;;;;;;5025367;28;20601;-59
2022/03/20 11:16:26;;;;;;;15.13;13.30;;;12.30;98.20;;;;;;5042879;28;20414;-58
2022/03/20 11:18:54;;;;;;;16.20;12.88;;;12.60;98.70;;;;;;5044245;28;20810;-60
2022/03/20 11:21:23;;;;;;;15.73;12.98;;;13.00;98.20;;;;;;5061343;28;20380;-56
2022/03/20 11:23:51;;;;;;;15.52;13.43;;;13.20;97.40;;;;;;5062283;28;20426;-58
2022/03/20 11:26:20;;;;;;;18.45;15.43;;;13.30;97.40;;;;;;5046226;28;20380;-60
2022/03/20 11:28:50;;;;;;;17.13;14.05;;;13.30;95.60;;;;;;5043656;28;20664;-60
2022/03/20 11:31:16;;;;;;;20.50;14.75;;;13.40;96.00;;;;;;5043295;28;20406;-58
2022/03/20 11:33:44;;;;;;;18.90;14.57;;;13.20;95.40;;;;;;5040947;28;20407;-59
2022/03/20 11:36:11;;;;;;;17.83;13.90;;;13.30;94.60;;;;;;5060024;28;20789;-58
2022/03/20 11:38:37;;;;;;;17.13;14.68;;;13.50;95.60;;;;;;5043508;28;20379;-60
2022/03/20 11:41:07;;;;;;;15.98;14.27;;;13.70;94.60;;;;;;5045134;28;20395;-60
2022/03/20 11:43:34;;;;;;;16.98;14.35;;;13.80;94.40;;;;;;5045733;28;20379;-60
2022/03/20 11:46:21;;;;;;;17.58;14.63;;;14.00;93.70;;;;;;5043407;28;20811;-60
2022/03/20 11:49:12;;;;;;;15.80;14.10;;;13.90;93.20;;;;;;5044386;28;20677;-59
2022/03/20 11:51:52;;;;;;;16.48;14.32;;;14.00;92.40;;;;;;5045476;28;20393;-60
2022/03/20 11:54:18;;;;;;;16.17;13.88;;;14.00;92.20;;;;;;5065028;28;20811;-60
2022/03/20 11:56:43;;;;;;;18.02;14.93;;;14.00;92.60;;;;;;5065817;28;20395;-59
2022/03/20 11:59:47;;;;;;;18.90;14.27;;;13.90;91.50;;;;;;5048958;28;20411;-59
2022/03/20 12:02:16;;;;;;;19.55;15.07;;;14.10;91.30;;;;;;5042391;28;20696;-59
2022/03/20 12:05:13;;;;;;;18.17;14.38;;;14.10;91.70;;;;;;5064444;28;20973;-57
2022/03/20 12:07:55;;;;;;;15.35;13.73;;;14.20;91.80;;;;;;5049082;28;20383;-59
2022/03/20 12:10:45;;;;;;;15.25;13.63;;;14.30;90.40;;;;;;5065367;28;20411;-59
2022/03/20 12:13:22;;;;;;;16.23;14.40;;;14.50;90.40;;;;;;5049615;28;20491;-57
2022/03/20 12:15:48;;;;;;;18.23;15.45;;;14.50;89.20;;;;;;5064455;28;20400;-59
2022/03/20 12:18:14;;;;;;;16.23;14.27;;;14.60;89.30;;;;;;5064592;28;20450;-58
2022/03/20 12:20:48;;;;;;;16.27;14.18;;;14.70;88.60;;;;;;5048867;28;20380;-59
2022/03/20 12:23:29;;;;;;;17.80;14.77;;;14.90;88.30;;;;;;5070272;28;20387;-58
2022/03/20 12:25:55;;;;;;;16.45;14.27;;;14.80;87.30;;;;;;5054463;28;20415;-57
2022/03/20 12:28:30;;;;;;;18.08;15.00;;;15.00;87.50;;;;;;5072086;28;20384;-58
2022/03/20 12:30:56;;;;;;;19.15;14.48;;;15.10;85.80;;;;;;5070712;28;20403;-59
2022/03/20 12:33:24;;;;;;;16.92;14.40;;;15.20;86.00;;;;;;5053019;28;20415;-59
2022/03/20 12:35:51;;;;;;;17.13;13.77;;;15.30;82.90;;;;;;5053089;28;20671;-59
2022/03/20 12:38:37;;;;;;;15.00;12.80;;;15.50;84.70;;;;;;5053060;28;20391;-64
2022/03/20 12:41:22;;;;;;;16.80;14.60;;;15.40;88.70;;;;;;5051080;28;20389;-58
2022/03/20 12:43:59;;;;;;;16.95;13.93;;;15.50;83.80;;;;;;5053395;28;20395;-58
2022/03/20 12:46:25;;;;;;;17.15;14.63;;;15.60;81.00;;;;;;5052257;28;20419;-59
2022/03/20 12:48:52;;;;;;;18.42;14.52;;;15.70;79.80;;;;;;5055438;28;20468;-58
2022/03/20 12:51:32;;;;;;;18.40;14.93;;;15.70;79.30;;;;;;5054986;28;20844;-58
2022/03/20 12:54:03;;;;;;;16.40;14.52;;;15.90;79.90;;;;;;5047129;28;20447;-58
2022/03/20 12:56:29;;;;;;;19.77;14.23;;;16.00;77.50;;;;;;5049069;28;21068;-57
2022/03/20 12:58:55;;;;;;;17.52;14.15;;;15.90;76.80;;;;;;5047937;28;20608;-58
2022/03/20 13:01:21;;;;;;;16.97;14.07;;;15.90;75.30;;;;;;5046530;28;20779;-59
2022/03/20 13:03:47;;;;;;;16.67;14.43;;;16.20;76.90;;;;;;5046801;28;20390;-56
2022/03/20 13:06:14;;;;;;;17.50;13.97;;;16.60;77.10;;;;;;5065768;28;20379;-59
2022/03/20 13:08:44;;;;;;;16.98;13.60;;;16.60;74.40;;;;;;5049426;28;20391;-56
2022/03/20 13:14:15;;;;;;;19.20;14.07;;;16.60;73.50;;;;;;5063410;28;20410;-59
2022/03/20 13:16:55;;;;;;;17.33;14.00;;;16.80;73.30;;;;;;5044199;28;20672;-57
2022/03/20 13:19:32;;;;;;;16.45;13.80;;;16.90;72.30;;;;;;5041481;28;20486;-59
2022/03/20 13:22:02;;;;;;;15.63;13.63;;;16.90;69.80;;;;;;5041943;28;20616;-57